River Falls, Wisconsin
Current Conditions -  °F | °C
As of 11:51 PM on Wednesday 26 Nov 2014 (Local Time) from K21D Reporting Station
Clear Clear  
Wind Chill:   Ceiling: Unl
Heat Index: 12°   Visibility: 10mi
Dew Point:   Wind: 7mph
Humidity: 67%   Direction: 340°NNW
Pressure: 30.39"   Gusts: NA
Location:  44.85°N, 92.63°W
Report Text: K21D 270551Z AUTO 34006KT 10SM CLR M11/M16 A3039 RMK AO2
Loading
Personal Weather Stations






























Interactive Weather Map New forecast layout! Learn more

10-Day Weather Forecast

Advertisements
Track Severe Weather on mobile